createdAt,value
2022-08-04T00:01:53.512Z,23.10
2022-08-04T00:04:19.846Z,23.09
2022-08-04T00:06:46.091Z,23.05
2022-08-04T00:09:12.320Z,23.04
2022-08-04T00:11:38.531Z,23.00
2022-08-04T00:14:04.782Z,22.99
2022-08-04T00:16:32.694Z,22.97
2022-08-04T00:19:01.356Z,22.95
2022-08-04T00:21:27.603Z,22.92
2022-08-04T00:24:11.553Z,22.89
2022-08-04T00:26:38.724Z,22.87
2022-08-04T00:29:04.960Z,22.84
2022-08-04T00:31:33.248Z,22.83
2022-08-04T00:34:17.409Z,22.82
2022-08-04T00:36:43.618Z,22.77
2022-08-04T00:39:09.889Z,22.75
2022-08-04T00:41:36.147Z,22.74
2022-08-04T00:44:23.754Z,22.72
2022-08-04T00:46:50.270Z,22.70
2022-08-04T00:49:16.536Z,22.67
2022-08-04T00:51:42.791Z,22.63
2022-08-04T00:54:09.026Z,22.61
2022-08-04T00:56:35.269Z,22.58
2022-08-04T00:59:01.552Z,22.56
2022-08-04T01:01:27.816Z,22.53
2022-08-04T01:03:54.106Z,22.50
2022-08-04T01:06:20.337Z,22.49
2022-08-04T01:08:46.549Z,22.48
2022-08-04T01:11:12.817Z,22.46
2022-08-04T01:13:39.032Z,22.44
2022-08-04T01:16:05.281Z,22.41
2022-08-04T01:18:31.524Z,22.41
2022-08-04T01:20:57.769Z,22.40
2022-08-04T01:23:23.988Z,22.37
2022-08-04T01:25:50.215Z,22.36
2022-08-04T01:28:16.419Z,22.34
2022-08-04T01:30:43.910Z,22.32
2022-08-04T01:33:10.165Z,22.29
2022-08-04T01:35:47.265Z,22.25
2022-08-04T01:38:20.849Z,22.23
2022-08-04T01:40:47.942Z,22.19
2022-08-04T01:43:14.175Z,22.14
2022-08-04T01:45:40.425Z,22.12
2022-08-04T01:48:06.711Z,22.09
2022-08-04T01:50:33.001Z,22.06
2022-08-04T01:52:59.211Z,22.05
2022-08-04T01:55:25.452Z,22.01
2022-08-04T01:58:11.665Z,21.99
2022-08-04T02:00:37.945Z,21.95
2022-08-04T02:03:04.303Z,21.93
2022-08-04T02:06:02.550Z,21.89
2022-08-04T02:08:16.932Z,21.87
2022-08-04T02:10:43.209Z,21.84
2022-08-04T02:13:09.465Z,21.82
2022-08-04T02:15:35.707Z,21.76
2022-08-04T02:18:01.935Z,21.73
2022-08-04T02:20:28.180Z,21.70
2022-08-04T02:22:54.397Z,21.66
2022-08-04T02:25:20.648Z,21.60
2022-08-04T02:27:59.622Z,21.57
2022-08-04T02:30:26.908Z,21.54
2022-08-04T02:32:53.148Z,21.51
2022-08-04T02:35:19.403Z,21.48
2022-08-04T02:37:45.647Z,21.43
2022-08-04T02:40:11.874Z,21.39
2022-08-04T02:42:38.139Z,21.36
2022-08-04T02:45:04.388Z,21.32
2022-08-04T02:48:29.159Z,21.29
2022-08-04T02:50:19.428Z,21.25
2022-08-04T02:52:55.450Z,21.21
2022-08-04T02:55:21.701Z,21.15
2022-08-04T02:57:47.940Z,21.11
2022-08-04T03:00:14.200Z,21.06
2022-08-04T03:02:40.425Z,21.00
2022-08-04T03:05:06.789Z,20.96
2022-08-04T03:07:33.025Z,20.92
2022-08-04T03:09:59.318Z,20.88
2022-08-04T03:12:25.546Z,20.82
2022-08-04T03:14:51.790Z,20.77
2022-08-04T03:17:18.018Z,20.76
2022-08-04T03:19:44.260Z,20.74
2022-08-04T03:22:10.488Z,20.73
2022-08-04T03:24:36.730Z,20.71
2022-08-04T03:27:02.945Z,20.69
2022-08-04T03:29:36.092Z,20.68
2022-08-04T03:32:03.489Z,20.68
2022-08-04T03:34:29.740Z,20.67
2022-08-04T03:36:56.013Z,20.67
2022-08-04T03:39:22.294Z,20.67
2022-08-04T03:41:51.282Z,20.68
2022-08-04T03:44:30.086Z,20.66
2022-08-04T03:46:56.314Z,20.65
2022-08-04T03:49:22.545Z,20.64
2022-08-04T03:51:48.797Z,20.62
2022-08-04T03:54:15.030Z,20.62
2022-08-04T03:56:41.292Z,20.62
2022-08-04T03:59:07.537Z,20.58
2022-08-04T04:02:01.299Z,20.58
2022-08-04T04:04:19.975Z,20.57
2022-08-04T04:06:53.738Z,20.58
2022-08-04T04:09:20.867Z,20.58
2022-08-04T04:11:57.111Z,20.58
2022-08-04T04:14:24.317Z,20.60
2022-08-04T04:16:50.567Z,20.61
2022-08-04T04:19:16.797Z,20.60
2022-08-04T04:21:43.034Z,20.61
2022-08-04T04:24:09.253Z,20.62
2022-08-04T04:26:35.495Z,20.62
2022-08-04T04:29:03.505Z,20.64
2022-08-04T04:31:29.953Z,20.65
2022-08-04T04:33:56.209Z,20.63
2022-08-04T04:36:22.460Z,20.63
2022-08-04T04:38:48.683Z,20.63
2022-08-04T04:41:15.110Z,20.62
2022-08-04T04:43:51.850Z,20.60
2022-08-04T04:46:18.639Z,20.60
2022-08-04T04:48:44.865Z,20.59
2022-08-04T04:51:11.100Z,20.58
2022-08-04T04:53:37.340Z,20.60
2022-08-04T04:56:03.599Z,20.62
2022-08-04T04:58:29.816Z,20.65
2022-08-04T05:00:56.062Z,20.68
2022-08-04T05:03:22.292Z,20.70
2022-08-04T05:05:48.567Z,20.74
2022-08-04T05:08:44.205Z,20.77
2022-08-04T05:11:01.050Z,20.81
2022-08-04T05:14:37.971Z,20.85
2022-08-04T05:16:13.526Z,20.87
2022-08-04T05:18:39.747Z,20.91
2022-08-04T05:21:06.011Z,20.94
2022-08-04T05:23:32.319Z,21.00
2022-08-04T05:25:59.750Z,21.04
2022-08-04T05:28:26.364Z,21.08
2022-08-04T05:30:52.695Z,21.13
2022-08-04T05:33:18.981Z,21.18
2022-08-04T05:36:16.999Z,21.22
2022-08-04T05:38:31.483Z,21.28
2022-08-04T05:40:57.740Z,21.34
2022-08-04T05:43:23.962Z,21.40
2022-08-04T05:45:50.221Z,21.48
2022-08-04T05:48:16.443Z,21.54
2022-08-04T05:50:42.712Z,21.61
2022-08-04T05:53:08.939Z,21.71
2022-08-04T05:55:56.635Z,21.77
2022-08-04T05:58:21.422Z,21.87
2022-08-04T06:00:52.288Z,21.96
2022-08-04T06:03:18.881Z,22.05
2022-08-04T06:05:45.136Z,22.13
2022-08-04T06:08:12.667Z,22.22
2022-08-04T06:10:40.268Z,22.31
2022-08-04T06:13:06.498Z,22.39
2022-08-04T06:15:32.785Z,22.46
2022-08-04T06:18:33.233Z,22.54
2022-08-04T06:20:50.045Z,22.62
2022-08-04T06:23:17.111Z,22.71
2022-08-04T06:25:43.368Z,22.76
2022-08-04T06:28:09.592Z,22.86
2022-08-04T06:30:35.878Z,22.94
2022-08-04T06:33:03.352Z,23.04
2022-08-04T06:35:30.732Z,23.12
2022-08-04T06:38:00.727Z,23.28
2022-08-04T06:40:31.542Z,23.43
2022-08-04T06:42:59.362Z,23.55
2022-08-04T06:45:25.788Z,23.72
2022-08-04T06:47:52.218Z,23.91
2022-08-04T06:51:27.260Z,24.00
2022-08-04T06:53:04.868Z,24.10
2022-08-04T06:55:31.196Z,24.16
2022-08-04T06:58:02.488Z,24.23
2022-08-04T07:00:29.296Z,24.29
2022-08-04T07:02:55.716Z,24.37
2022-08-04T07:05:21.961Z,24.45
2022-08-04T07:07:57.350Z,24.51
2022-08-04T07:10:24.698Z,24.59
2022-08-04T07:12:51.080Z,24.67
2022-08-04T07:15:20.129Z,24.73
2022-08-04T07:17:46.346Z,24.82
2022-08-04T07:20:16.446Z,24.97
2022-08-04T07:23:01.411Z,25.06
2022-08-04T07:25:58.678Z,25.19
2022-08-04T07:28:13.881Z,25.39
2022-08-04T07:30:40.137Z,25.57
2022-08-04T07:33:06.372Z,25.85
2022-08-04T07:36:03.992Z,25.95
2022-08-04T07:38:18.824Z,26.08
2022-08-04T07:40:53.888Z,26.32
2022-08-04T07:43:20.107Z,26.37
2022-08-04T07:45:46.334Z,26.39
2022-08-04T07:48:12.839Z,26.41
2022-08-04T07:50:39.325Z,26.44
2022-08-04T07:53:53.251Z,26.47
2022-08-04T07:55:51.879Z,26.52
2022-08-04T07:58:18.127Z,26.56
2022-08-04T08:00:44.448Z,26.59
2022-08-04T08:03:10.735Z,26.62
2022-08-04T08:05:37.028Z,26.66
2022-08-04T08:08:23.248Z,26.75
2022-08-04T08:10:49.512Z,26.84
2022-08-04T08:13:15.809Z,26.93
2022-08-04T08:15:42.079Z,27.01
2022-08-04T08:18:08.308Z,27.13
2022-08-04T08:20:34.592Z,27.29
2022-08-04T08:23:00.935Z,27.40
2022-08-04T08:25:27.245Z,27.48
2022-08-04T08:27:55.778Z,27.53
2022-08-04T08:30:22.757Z,27.55
2022-08-04T08:32:49.650Z,27.60
2022-08-04T08:35:16.009Z,27.68
2022-08-04T08:37:42.415Z,27.75
2022-08-04T08:40:08.694Z,27.83
2022-08-04T08:42:34.940Z,27.94
2022-08-04T08:45:01.193Z,28.04
2022-08-04T08:47:27.417Z,28.12
2022-08-04T08:50:02.153Z,28.31
2022-08-04T08:52:55.373Z,28.43
2022-08-04T08:55:16.442Z,28.49
2022-08-04T08:57:43.998Z,28.52
2022-08-04T09:00:31.832Z,28.59
2022-08-04T09:03:04.496Z,28.66
2022-08-04T09:05:31.435Z,28.72
2022-08-04T09:07:57.715Z,28.78
2022-08-04T09:10:23.978Z,28.85
2022-08-04T09:12:50.314Z,28.98
2022-08-04T09:15:16.575Z,29.06
2022-08-04T09:17:42.821Z,29.10
2022-08-04T09:20:09.111Z,29.23
2022-08-04T09:22:35.382Z,29.29
2022-08-04T09:25:01.670Z,29.38
2022-08-04T09:27:27.914Z,29.48
2022-08-04T09:29:54.191Z,29.55
2022-08-04T09:32:20.420Z,29.76
2022-08-04T09:34:46.732Z,29.83
2022-08-04T09:37:29.976Z,29.93
2022-08-04T09:39:56.255Z,30.00
2022-08-04T09:42:25.895Z,30.14
2022-08-04T09:44:56.395Z,30.21
2022-08-04T09:47:40.146Z,30.30
2022-08-04T09:50:07.052Z,30.32
2022-08-04T09:52:33.283Z,30.39
2022-08-04T09:54:59.533Z,30.49
2022-08-04T09:57:25.763Z,30.58
2022-08-04T09:59:52.058Z,30.66
2022-08-04T10:02:18.296Z,30.77
2022-08-04T10:04:44.552Z,30.96
2022-08-04T10:07:10.815Z,31.05
2022-08-04T10:09:37.036Z,31.07
2022-08-04T10:12:03.286Z,31.29
2022-08-04T10:14:29.509Z,31.36
2022-08-04T10:16:55.752Z,31.42
2022-08-04T10:19:22.018Z,31.50
2022-08-04T10:21:50.696Z,31.55
2022-08-04T10:24:26.194Z,31.73
2022-08-04T10:26:57.181Z,31.79
2022-08-04T10:29:23.823Z,31.86
2022-08-04T10:31:50.063Z,31.88
2022-08-04T10:34:16.733Z,31.88
2022-08-04T10:36:43.032Z,31.89
2022-08-04T10:39:09.885Z,32.06
2022-08-04T10:41:38.576Z,32.17
2022-08-04T10:44:04.815Z,32.34
2022-08-04T10:46:31.061Z,32.52
2022-08-04T10:48:57.349Z,32.57
2022-08-04T10:51:23.601Z,32.60
2022-08-04T10:53:50.111Z,32.63
2022-08-04T10:56:16.446Z,32.66
2022-08-04T10:58:47.060Z,32.84
2022-08-04T11:01:50.982Z,32.87
2022-08-04T11:04:01.206Z,32.88
2022-08-04T11:06:27.472Z,32.90
2022-08-04T11:08:53.703Z,32.96
2022-08-04T11:11:20.589Z,33.05
2022-08-04T11:13:47.276Z,33.15
2022-08-04T11:16:13.577Z,33.14
2022-08-04T11:18:39.804Z,33.16
2022-08-04T11:21:06.049Z,33.23
2022-08-04T11:23:32.266Z,33.39
2022-08-04T11:25:58.515Z,33.48
2022-08-04T11:28:24.772Z,33.59
2022-08-04T11:30:50.998Z,33.61
2022-08-04T11:33:17.315Z,33.68
2022-08-04T11:35:43.555Z,33.74
2022-08-04T11:38:09.783Z,33.90
2022-08-04T11:40:36.052Z,33.91
2022-08-04T11:43:02.281Z,33.87
2022-08-04T11:45:28.525Z,33.86
2022-08-04T11:47:54.801Z,33.86
2022-08-04T11:50:21.049Z,33.85
2022-08-04T11:52:47.278Z,33.91
2022-08-04T11:55:13.515Z,33.99
2022-08-04T11:57:39.773Z,34.04
2022-08-04T12:00:07.136Z,34.12
2022-08-04T12:02:33.935Z,34.21
2022-08-04T12:05:00.235Z,34.24
2022-08-04T12:07:31.119Z,34.29
2022-08-04T12:09:58.004Z,34.35
2022-08-04T12:12:24.228Z,34.35
2022-08-04T12:14:50.489Z,34.38
2022-08-04T12:17:16.745Z,34.39
2022-08-04T12:20:04.438Z,34.42
2022-08-04T12:22:32.078Z,34.41
2022-08-04T12:24:58.512Z,34.53
2022-08-04T12:27:26.859Z,34.64
2022-08-04T12:30:58.173Z,34.81
2022-08-04T12:32:48.436Z,34.87
2022-08-04T12:35:19.855Z,34.93
2022-08-04T12:37:46.089Z,34.96
2022-08-04T12:40:28.634Z,34.96
2022-08-04T12:42:59.365Z,34.87
2022-08-04T12:45:26.200Z,34.86
2022-08-04T12:47:52.480Z,34.91
2022-08-04T12:50:18.734Z,34.90
2022-08-04T12:55:31.445Z,34.96
2022-08-04T12:57:57.705Z,35.07
2022-08-04T13:00:26.293Z,35.17
2022-08-04T13:02:55.339Z,35.38
2022-08-04T13:05:21.593Z,35.46
2022-08-04T13:07:47.815Z,35.54
2022-08-04T13:10:14.046Z,35.63
2022-08-04T13:12:44.586Z,35.66
2022-08-04T13:15:10.866Z,35.79
2022-08-04T13:17:44.518Z,35.93
2022-08-04T13:20:14.170Z,36.16
2022-08-04T13:22:46.351Z,36.41
2022-08-04T13:26:41.593Z,36.63
2022-08-04T13:27:59.125Z,36.84
2022-08-04T13:30:26.178Z,37.05
2022-08-04T13:32:52.412Z,37.23
2022-08-04T13:35:18.678Z,37.37
2022-08-04T13:37:44.899Z,37.40
2022-08-04T13:40:11.160Z,37.54
2022-08-04T13:42:37.388Z,37.62
2022-08-04T13:45:03.650Z,37.71
2022-08-04T13:47:29.876Z,37.82
2022-08-04T13:50:10.254Z,37.78
2022-08-04T13:52:37.697Z,37.44
2022-08-04T13:55:03.940Z,37.22
2022-08-04T13:57:30.140Z,37.24
2022-08-04T13:59:56.392Z,37.40
2022-08-04T14:02:22.622Z,37.58
2022-08-04T14:04:48.857Z,37.78
2022-08-04T14:07:17.700Z,37.92
2022-08-04T14:10:02.604Z,38.09
2022-08-04T14:12:45.813Z,38.21
2022-08-04T14:15:12.884Z,38.28
2022-08-04T14:17:39.124Z,38.21
2022-08-04T14:20:05.357Z,38.10
2022-08-04T14:22:31.576Z,38.12
2022-08-04T14:24:57.807Z,38.40
2022-08-04T14:27:24.351Z,38.77
2022-08-04T14:29:50.780Z,38.82
2022-08-04T14:32:22.913Z,38.39
2022-08-04T14:34:52.196Z,38.25
2022-08-04T14:37:20.083Z,38.23
2022-08-04T14:40:08.901Z,37.94
2022-08-04T14:42:33.317Z,37.76
2022-08-04T14:44:59.570Z,37.66
2022-08-04T14:47:25.815Z,37.77
2022-08-04T14:49:52.049Z,37.67
2022-08-04T14:52:18.294Z,37.64
2022-08-04T14:54:44.546Z,37.81
2022-08-04T14:57:10.819Z,37.99
2022-08-04T14:59:37.083Z,38.24
2022-08-04T15:02:03.388Z,38.41
2022-08-04T15:04:29.668Z,38.56
2022-08-04T15:06:55.918Z,38.54
2022-08-04T15:09:22.190Z,38.48
2022-08-04T15:11:48.443Z,38.58
2022-08-04T15:14:36.015Z,38.34
2022-08-04T15:17:00.897Z,38.39
2022-08-04T15:19:27.131Z,38.46
2022-08-04T15:21:53.392Z,38.57
2022-08-04T15:24:19.652Z,38.54
2022-08-04T15:26:45.866Z,38.66
2022-08-04T15:29:16.432Z,38.58
2022-08-04T15:32:06.495Z,38.38
2022-08-04T15:34:29.281Z,38.26
2022-08-04T15:36:56.427Z,38.43
2022-08-04T15:39:23.815Z,38.23
2022-08-04T15:41:55.468Z,38.22
2022-08-04T15:44:21.887Z,38.48
2022-08-04T15:46:48.153Z,38.74
2022-08-04T15:49:14.450Z,38.87
2022-08-04T15:51:40.747Z,38.84
2022-08-04T15:54:08.431Z,38.97
2022-08-04T15:56:42.658Z,39.26
2022-08-04T15:59:14.819Z,39.39
2022-08-04T16:02:11.707Z,38.99
2022-08-04T16:04:36.756Z,38.58
2022-08-04T16:07:02.980Z,38.61
2022-08-04T16:09:45.102Z,38.54
2022-08-04T16:12:13.725Z,38.46
2022-08-04T16:14:40.191Z,38.20
2022-08-04T16:17:06.448Z,37.96
2022-08-04T16:19:35.917Z,37.73
2022-08-04T16:22:02.271Z,37.47
2022-08-04T16:24:28.597Z,37.18
2022-08-04T16:26:56.214Z,37.13
2022-08-04T16:29:23.015Z,37.17
2022-08-04T16:31:49.245Z,37.17
2022-08-04T16:34:47.939Z,37.33
2022-08-04T16:37:01.771Z,37.57
2022-08-04T16:39:28.143Z,37.55
2022-08-04T16:41:54.560Z,37.53
2022-08-04T16:44:43.053Z,37.58
2022-08-04T16:47:21.846Z,37.67
2022-08-04T16:49:49.491Z,37.81
2022-08-04T16:52:18.205Z,37.82
2022-08-04T16:54:44.556Z,37.86
2022-08-04T16:57:10.792Z,37.82
2022-08-04T16:59:37.038Z,37.88
2022-08-04T17:02:03.303Z,37.96
2022-08-04T17:04:29.596Z,37.90
2022-08-04T17:06:55.822Z,37.64
2022-08-04T17:09:26.784Z,37.49
2022-08-04T17:12:00.776Z,37.47
2022-08-04T17:14:27.065Z,37.51
2022-08-04T17:16:53.509Z,37.44
2022-08-04T17:19:25.999Z,37.29
2022-08-04T17:21:52.889Z,37.30
2022-08-04T17:24:19.119Z,37.27
2022-08-04T17:26:53.683Z,37.22
2022-08-04T17:29:21.070Z,37.10
2022-08-04T17:31:47.969Z,37.08
2022-08-04T17:34:15.903Z,37.04
2022-08-04T17:36:45.693Z,36.89
2022-08-04T17:39:16.989Z,36.84
2022-08-04T17:44:29.773Z,36.69
2022-08-04T17:46:56.011Z,36.67
2022-08-04T17:49:22.700Z,36.55
2022-08-04T17:52:04.387Z,36.38
2022-08-04T17:54:36.701Z,36.12
2022-08-04T17:57:03.120Z,35.97
2022-08-04T17:59:55.681Z,35.84
2022-08-04T18:02:15.559Z,35.68
2022-08-04T18:08:39.151Z,35.40
2022-08-04T18:10:31.021Z,35.26
2022-08-04T18:13:00.665Z,35.14
2022-08-04T18:15:26.902Z,34.99
2022-08-04T18:18:20.951Z,34.83
2022-08-04T18:20:50.098Z,34.64
2022-08-04T18:23:16.915Z,34.49
2022-08-04T18:25:51.537Z,34.30
2022-08-04T18:28:22.720Z,34.13
2022-08-04T18:30:55.670Z,33.97
2022-08-04T18:33:39.617Z,33.81
2022-08-04T18:36:32.565Z,33.63
2022-08-04T18:38:55.620Z,33.46
2022-08-04T18:41:24.667Z,33.32
2022-08-04T18:43:55.628Z,33.20
2022-08-04T18:46:22.830Z,33.07
2022-08-04T18:48:53.042Z,32.93
2022-08-04T18:51:22.674Z,32.31
2022-08-04T18:53:55.281Z,31.56
2022-08-04T18:56:29.927Z,31.22
2022-08-04T18:59:00.038Z,31.15
2022-08-04T19:01:30.141Z,31.16
2022-08-04T19:04:33.012Z,31.16
2022-08-04T19:06:58.853Z,31.16
2022-08-04T19:09:45.137Z,31.12
2022-08-04T19:12:26.895Z,31.09
2022-08-04T19:14:58.002Z,31.01
2022-08-04T19:17:55.130Z,30.94
2022-08-04T19:20:16.056Z,30.90
2022-08-04T19:24:28.194Z,30.84
2022-08-04T19:25:58.678Z,30.78
2022-08-04T19:28:23.105Z,30.69
2022-08-04T19:30:54.345Z,30.64
2022-08-04T19:33:24.969Z,30.56
2022-08-04T19:35:51.634Z,30.49
2022-08-04T19:38:17.861Z,30.43
2022-08-04T19:40:52.509Z,30.36
2022-08-04T19:43:19.307Z,30.31
2022-08-04T19:45:45.935Z,30.27
2022-08-04T19:50:58.472Z,30.16
2022-08-04T19:53:26.773Z,30.11
2022-08-04T19:56:04.049Z,30.04
2022-08-04T19:58:30.286Z,29.98
2022-08-04T20:00:56.612Z,29.92
2022-08-04T20:03:22.836Z,29.85
2022-08-04T20:06:09.095Z,29.73
2022-08-04T20:08:35.303Z,29.67
2022-08-04T20:11:01.594Z,29.62
2022-08-04T20:13:37.177Z,29.55
2022-08-04T20:16:04.120Z,29.48
2022-08-04T20:18:36.505Z,29.42
2022-08-04T20:21:19.660Z,29.36
2022-08-04T20:23:50.676Z,29.30
2022-08-04T20:26:16.930Z,29.23
2022-08-04T20:28:45.743Z,29.17
2022-08-04T20:31:12.492Z,29.11
2022-08-04T20:33:44.759Z,29.03
2022-08-04T20:36:19.903Z,28.99
2022-08-04T20:38:51.647Z,28.93
2022-08-04T20:41:19.208Z,28.89
2022-08-04T20:43:49.565Z,28.84
2022-08-04T20:46:18.240Z,28.79
2022-08-04T20:48:45.110Z,28.76
2022-08-04T20:51:11.417Z,28.72
2022-08-04T20:53:52.826Z,28.68
2022-08-04T20:56:30.322Z,28.66
2022-08-04T20:58:57.715Z,28.62
2022-08-04T21:01:29.598Z,28.60
2022-08-04T21:03:59.793Z,28.58
2022-08-04T21:06:27.259Z,28.54
2022-08-04T21:08:57.333Z,28.48
2022-08-04T21:11:23.960Z,28.45
2022-08-04T21:13:58.755Z,28.40
2022-08-04T21:16:53.927Z,28.35
2022-08-04T21:19:13.133Z,28.32
2022-08-04T21:21:40.263Z,28.27
2022-08-04T21:24:06.626Z,28.22
2022-08-04T21:26:32.908Z,28.19
2022-08-04T21:28:59.128Z,28.14
2022-08-04T21:31:25.927Z,28.10
2022-08-04T21:33:52.409Z,28.04
2022-08-04T21:36:19.788Z,27.99
2022-08-04T21:38:51.522Z,27.95
2022-08-04T21:41:24.301Z,27.91
2022-08-04T21:43:51.504Z,27.88
2022-08-04T21:46:18.377Z,27.84
2022-08-04T21:48:44.673Z,27.80
2022-08-04T21:51:56.775Z,27.76
2022-08-04T21:54:01.112Z,27.70
2022-08-04T21:56:27.360Z,27.67
2022-08-04T21:58:55.430Z,27.62
2022-08-04T22:01:50.418Z,27.57
2022-08-04T22:04:10.483Z,27.52
2022-08-04T22:06:38.705Z,27.47
2022-08-04T22:09:06.376Z,27.43
2022-08-04T22:11:48.149Z,27.39
2022-08-04T22:14:15.492Z,27.36
2022-08-04T22:16:41.715Z,27.33
2022-08-04T22:19:08.946Z,27.29
2022-08-04T22:21:39.087Z,27.23
2022-08-04T22:24:13.962Z,27.16
2022-08-04T22:26:40.600Z,27.09
2022-08-04T22:29:06.810Z,27.06
2022-08-04T22:31:53.268Z,27.03
2022-08-04T22:34:23.956Z,27.01
2022-08-04T22:36:50.289Z,27.00
2022-08-04T22:39:16.528Z,26.99
2022-08-04T22:42:02.977Z,26.96
2022-08-04T22:44:29.658Z,26.94
2022-08-04T22:46:58.772Z,26.91
2022-08-04T22:49:31.593Z,26.84
2022-08-04T22:51:58.883Z,26.75
2022-08-04T22:54:28.557Z,26.69
2022-08-04T22:56:56.042Z,26.65
2022-08-04T22:59:22.938Z,26.60
2022-08-04T23:02:00.679Z,26.57
2022-08-04T23:04:28.137Z,26.54
2022-08-04T23:06:54.413Z,26.53
2022-08-04T23:09:21.110Z,26.50
2022-08-04T23:11:53.896Z,26.48
2022-08-04T23:14:25.135Z,26.45
2022-08-04T23:16:51.445Z,26.44
2022-08-04T23:19:19.549Z,26.41
2022-08-04T23:22:02.021Z,26.38
2022-08-04T23:24:29.866Z,26.36
2022-08-04T23:26:56.303Z,26.34
2022-08-04T23:29:22.530Z,26.30
2022-08-04T23:31:59.919Z,26.25
2022-08-04T23:34:26.842Z,26.20
2022-08-04T23:36:55.523Z,26.16
2022-08-04T23:39:21.807Z,26.11
2022-08-04T23:41:53.366Z,26.05
2022-08-04T23:44:24.926Z,26.01
2022-08-04T23:46:53.331Z,25.96
2022-08-04T23:49:19.719Z,25.91
2022-08-04T23:51:45.948Z,25.86
2022-08-04T23:54:15.984Z,25.82
2022-08-04T23:56:49.772Z,25.75
2022-08-04T23:59:17.959Z,25.72
